Time;durP1;ratioP1;P1;durP2;ratioP2;P2;SDS_P1;SDS_P2;PMS_P1;PMS_P2;Temp;Humidity;BMP_temperature;BMP_pressure;BME280_temperature;BME280_humidity;BME280_pressure;Samples;Min_cycle;Max_cycle;Signal;HPM_P1;HPM_P2
2022/09/25 00:01:17;;;;;;;7.50;5.60;;;14.30;99.90;;;;;;4950249;28;20041;-93
2022/09/25 00:03:46;;;;;;;7.10;5.47;;;14.30;99.90;;;;;;4950918;28;20035;-93
2022/09/25 00:06:20;;;;;;;8.98;5.78;;;14.30;99.90;;;;;;4946571;28;20027;-93
2022/09/25 00:09:19;;;;;;;6.97;5.43;;;14.20;99.90;;;;;;4948218;28;20381;-93
2022/09/25 00:11:46;;;;;;;6.50;5.22;;;14.20;99.90;;;;;;4975993;28;20037;-91
2022/09/25 00:14:12;;;;;;;9.20;5.60;;;14.20;99.90;;;;;;4976145;28;20117;-92
2022/09/25 00:16:39;;;;;;;8.77;5.00;;;14.20;99.90;;;;;;4976027;28;20496;-92
2022/09/25 00:21:51;;;;;;;;;;;14.00;99.90;;;;;;4976353;28;20034;-91
2022/09/25 00:24:19;;;;;;;7.28;5.13;;;14.00;99.90;;;;;;4960300;28;19949;-91
2022/09/25 00:26:45;;;;;;;8.35;5.05;;;14.00;99.90;;;;;;4959730;28;20030;-91
2022/09/25 00:29:17;;;;;;;6.15;4.80;;;14.10;99.90;;;;;;4975846;28;20026;-91
2022/09/25 00:31:44;;;;;;;5.18;4.68;;;14.10;99.90;;;;;;4959739;28;20031;-91
2022/09/25 00:34:10;;;;;;;5.00;4.60;;;14.10;99.90;;;;;;4959664;28;20097;-91
2022/09/25 00:36:37;;;;;;;6.80;4.57;;;14.10;99.90;;;;;;4943430;28;20041;-90
2022/09/25 00:39:07;;;;;;;5.82;4.97;;;14.10;99.90;;;;;;4959330;28;20512;-91
2022/09/25 00:41:34;;;;;;;5.65;4.70;;;14.10;99.90;;;;;;4975757;28;20062;-92
2022/09/25 00:44:03;;;;;;;6.85;5.05;;;14.10;99.90;;;;;;4975427;28;20496;-92
2022/09/25 00:46:44;;;;;;;6.53;5.82;;;14.20;99.90;;;;;;4943450;28;20118;-92
2022/09/25 00:49:18;;;;;;;9.32;4.60;;;14.20;99.90;;;;;;4943357;28;20440;-92
2022/09/25 00:51:51;;;;;;;6.57;4.75;;;14.20;99.90;;;;;;4959318;28;20053;-91
2022/09/25 00:54:53;;;;;;;6.13;4.72;;;14.20;99.90;;;;;;4943405;28;20127;-92
2022/09/25 00:57:25;;;;;;;5.15;4.60;;;14.10;99.90;;;;;;4943259;28;20519;-91
2022/09/25 00:59:56;;;;;;;5.97;5.00;;;14.20;99.90;;;;;;4943271;28;20034;-91
2022/09/25 01:02:28;;;;;;;6.82;4.90;;;14.10;99.90;;;;;;4943276;28;20508;-91
2022/09/25 01:05:00;;;;;;;7.32;4.85;;;14.10;99.90;;;;;;4959263;28;20054;-93
2022/09/25 01:07:28;;;;;;;5.50;5.03;;;14.20;99.90;;;;;;4943081;28;20043;-91
2022/09/25 01:09:58;;;;;;;8.18;4.90;;;14.10;99.90;;;;;;4942971;28;20031;-90
2022/09/25 01:12:25;;;;;;;10.52;5.03;;;14.10;99.90;;;;;;4942712;28;20054;-92
2022/09/25 01:14:51;;;;;;;5.63;4.57;;;14.10;99.90;;;;;;4942795;28;20034;-91
2022/09/25 01:17:51;;;;;;;6.32;5.45;;;14.10;99.90;;;;;;4942952;28;20042;-90
2022/09/25 01:20:35;;;;;;;6.05;5.20;;;14.10;99.90;;;;;;4941297;28;20034;-91
2022/09/25 01:23:10;;;;;;;9.25;4.95;;;14.10;99.90;;;;;;4943037;28;20118;-90
2022/09/25 01:26:07;;;;;;;7.03;4.95;;;14.10;99.90;;;;;;4958912;28;20073;-92
2022/09/25 01:28:55;;;;;;;10.13;4.78;;;14.10;99.90;;;;;;4958707;28;20030;-91
2022/09/25 01:31:43;;;;;;;7.55;4.68;;;14.10;99.90;;;;;;4942630;28;20069;-90
2022/09/25 01:34:28;;;;;;;10.20;5.05;;;14.10;99.90;;;;;;4942608;28;20500;-90
2022/09/25 01:37:04;;;;;;;6.22;4.95;;;14.20;99.90;;;;;;4942619;28;20473;-91
2022/09/25 01:39:38;;;;;;;8.88;4.70;;;14.10;99.90;;;;;;4942584;28;20031;-92
2022/09/25 01:42:23;;;;;;;7.45;5.35;;;14.20;99.90;;;;;;4942716;28;20056;-91
2022/09/25 01:44:56;;;;;;;7.75;4.75;;;14.20;99.90;;;;;;4943456;28;20523;-91
2022/09/25 01:47:29;;;;;;;9.73;4.80;;;14.20;99.90;;;;;;4942940;28;20575;-91
2022/09/25 01:50:12;;;;;;;8.63;5.35;;;14.20;99.90;;;;;;4958463;28;20027;-91
2022/09/25 01:52:47;;;;;;;6.63;4.97;;;14.20;99.90;;;;;;4942350;28;20023;-93
2022/09/25 01:55:30;;;;;;;8.02;5.10;;;14.20;99.90;;;;;;4942605;28;20113;-91
2022/09/25 01:58:07;;;;;;;7.47;4.45;;;14.30;99.90;;;;;;4942354;28;20043;-91
2022/09/25 02:00:40;;;;;;;11.85;7.18;;;14.40;99.90;;;;;;4942776;28;20507;-90
2022/09/25 02:03:18;;;;;;;29.40;14.35;;;14.30;99.90;;;;;;4942825;28;20177;-91
2022/09/25 02:06:01;;;;;;;13.55;6.82;;;14.40;99.90;;;;;;4958293;28;20031;-92
2022/09/25 02:08:38;;;;;;;9.48;5.20;;;14.50;99.90;;;;;;4942240;28;20031;-90
2022/09/25 02:11:11;;;;;;;9.70;5.72;;;14.50;99.90;;;;;;4942311;28;20023;-91
2022/09/25 02:13:43;;;;;;;14.18;5.68;;;14.50;99.90;;;;;;4942277;28;20500;-90
2022/09/25 02:16:15;;;;;;;12.48;5.80;;;14.60;99.90;;;;;;4942168;28;20027;-90
2022/09/25 02:21:53;;;;;;;8.88;5.18;;;14.60;99.90;;;;;;4958066;28;20114;-90
2022/09/25 02:24:24;;;;;;;11.88;5.20;;;14.60;99.90;;;;;;4961339;28;20046;-91
2022/09/25 02:26:51;;;;;;;9.32;4.78;;;14.70;99.90;;;;;;4945977;28;20030;-90
2022/09/25 02:29:19;;;;;;;7.10;4.95;;;14.70;99.90;;;;;;4945826;28;20086;-90
2022/09/25 02:31:52;;;;;;;9.02;5.00;;;14.80;99.90;;;;;;4945956;28;20441;-90
2022/09/25 02:34:20;;;;;;;7.05;5.20;;;14.80;99.90;;;;;;4945926;28;20091;-90
2022/09/25 02:36:47;;;;;;;8.43;5.15;;;14.80;99.90;;;;;;4945763;28;20035;-91
2022/09/25 02:39:19;;;;;;;7.53;5.13;;;14.80;99.90;;;;;;4945814;28;20033;-91
2022/09/25 02:42:13;;;;;;;8.18;5.00;;;14.80;99.90;;;;;;4945860;28;20027;-91
2022/09/25 02:45:01;;;;;;;7.80;4.03;;;14.80;99.90;;;;;;4961569;28;20043;-92
2022/09/25 02:47:34;;;;;;;8.05;4.60;;;14.90;99.90;;;;;;4961731;28;20290;-91
2022/09/25 02:50:20;;;;;;;5.88;4.38;;;14.90;99.90;;;;;;4961600;28;20103;-91
2022/09/25 02:53:02;;;;;;;8.43;4.53;;;14.90;99.90;;;;;;4945567;28;20035;-90
2022/09/25 02:55:50;;;;;;;7.35;4.35;;;14.90;99.90;;;;;;4961492;28;20030;-92
2022/09/25 02:58:23;;;;;;;8.43;5.20;;;14.90;99.90;;;;;;4945361;28;20129;-91
2022/09/25 03:00:53;;;;;;;6.13;4.28;;;14.90;99.90;;;;;;4945528;28;20085;-91
2022/09/25 03:03:23;;;;;;;9.18;4.03;;;14.90;99.90;;;;;;4945375;28;20026;-90
2022/09/25 03:05:51;;;;;;;16.23;8.07;;;14.90;99.90;;;;;;4945174;28;20023;-91
2022/09/25 03:08:39;;;;;;;16.67;7.53;;;14.90;99.90;;;;;;4961324;28;20082;-90
2022/09/25 03:11:13;;;;;;;10.82;6.03;;;14.90;99.90;;;;;;4945139;28;20121;-91
2022/09/25 03:13:41;;;;;;;23.33;9.43;;;14.90;99.90;;;;;;4945065;28;20034;-91
2022/09/25 03:16:24;;;;;;;17.25;8.40;;;15.00;99.90;;;;;;4944984;28;20095;-90
2022/09/25 03:18:50;;;;;;;24.08;11.60;;;15.00;99.90;;;;;;4958426;28;20035;-90
2022/09/25 03:21:17;;;;;;;23.10;11.48;;;15.00;99.90;;;;;;4961245;28;20078;-92
2022/09/25 03:23:44;;;;;;;12.55;5.63;;;15.10;99.90;;;;;;4960975;28;20037;-91
2022/09/25 03:26:10;;;;;;;8.02;5.07;;;15.10;99.90;;;;;;4944867;28;20050;-91
2022/09/25 03:28:37;;;;;;;6.55;4.78;;;15.10;99.90;;;;;;4944973;28;20484;-90
2022/09/25 03:31:03;;;;;;;9.73;4.82;;;15.10;99.90;;;;;;4944900;28;20388;-91
2022/09/25 03:33:41;;;;;;;10.50;5.00;;;15.10;99.90;;;;;;4960800;28;20035;-91
2022/09/25 03:36:15;;;;;;;7.75;4.47;;;15.20;99.90;;;;;;4944705;28;20038;-91
2022/09/25 03:38:42;;;;;;;11.10;5.28;;;15.20;99.90;;;;;;4944828;28;20030;-91
2022/09/25 03:41:10;;;;;;;8.60;4.10;;;15.30;99.90;;;;;;4944788;28;20031;-91
2022/09/25 03:43:42;;;;;;;7.97;4.78;;;15.30;99.90;;;;;;4944485;28;20056;-90
2022/09/25 03:46:12;;;;;;;9.43;4.70;;;15.30;99.90;;;;;;4944641;28;20026;-92
2022/09/25 03:48:39;;;;;;;6.38;4.53;;;15.30;99.90;;;;;;4944292;28;20361;-90
2022/09/25 03:51:26;;;;;;;6.95;4.60;;;15.30;99.90;;;;;;4944536;28;20492;-90
2022/09/25 03:53:54;;;;;;;10.20;4.88;;;15.30;99.90;;;;;;4944512;28;20126;-92
2022/09/25 03:56:25;;;;;;;6.22;4.57;;;15.40;99.90;;;;;;4944371;28;20027;-93
2022/09/25 03:58:54;;;;;;;8.35;4.63;;;15.40;99.90;;;;;;4944545;28;20089;-92
2022/09/25 04:01:23;;;;;;;11.30;4.40;;;15.40;99.90;;;;;;4944447;28;20500;-91
2022/09/25 04:03:50;;;;;;;6.25;4.15;;;15.40;99.90;;;;;;4944395;28;20062;-92
2022/09/25 04:06:22;;;;;;;9.75;4.63;;;15.40;99.90;;;;;;4944352;28;20030;-91
2022/09/25 04:08:50;;;;;;;4.60;3.95;;;15.40;99.90;;;;;;4944230;28;20034;-91
2022/09/25 04:11:21;;;;;;;7.75;4.63;;;15.40;99.90;;;;;;4944014;28;20642;-91
2022/09/25 04:13:48;;;;;;;4.78;4.22;;;15.40;99.90;;;;;;4944053;28;20045;-91
2022/09/25 04:16:17;;;;;;;6.55;4.45;;;15.30;99.90;;;;;;4944202;28;20046;-92
2022/09/25 04:18:44;;;;;;;6.80;4.85;;;15.30;99.90;;;;;;4944093;28;20117;-92
2022/09/25 04:21:13;;;;;;;9.85;4.65;;;15.30;99.90;;;;;;4943927;28;20057;-91
2022/09/25 04:23:40;;;;;;;9.50;4.30;;;15.30;99.90;;;;;;4943905;28;20031;-93
2022/09/25 04:26:09;;;;;;;8.30;5.18;;;15.30;99.90;;;;;;4942550;28;20019;-91
2022/09/25 04:28:37;;;;;;;8.38;4.50;;;15.30;99.90;;;;;;4943958;28;20066;-91
2022/09/25 04:31:04;;;;;;;6.20;4.68;;;15.40;99.90;;;;;;4943805;28;20035;-90
2022/09/25 04:33:46;;;;;;;5.90;4.47;;;15.40;99.90;;;;;;4959693;28;20085;-91
2022/09/25 04:36:15;;;;;;;5.60;4.65;;;15.40;99.90;;;;;;4943916;28;20031;-91
2022/09/25 04:38:42;;;;;;;6.60;4.22;;;15.40;99.90;;;;;;4943590;28;20484;-91
2022/09/25 04:41:10;;;;;;;5.30;4.43;;;15.40;99.90;;;;;;4943601;28;20027;-92
2022/09/25 04:43:37;;;;;;;6.97;4.20;;;15.40;99.90;;;;;;4943309;28;20129;-91
2022/09/25 04:46:06;;;;;;;7.57;4.68;;;15.40;99.90;;;;;;4943055;28;20023;-92
2022/09/25 04:48:34;;;;;;;6.00;4.43;;;15.50;99.90;;;;;;4943417;28;20069;-91
2022/09/25 04:51:03;;;;;;;6.25;4.00;;;15.50;99.90;;;;;;4943219;28;20027;-91
2022/09/25 04:53:35;;;;;;;8.18;4.80;;;15.60;99.90;;;;;;4943484;28;20031;-91
2022/09/25 04:56:07;;;;;;;6.93;4.72;;;15.60;99.90;;;;;;4943358;28;20027;-93
2022/09/25 04:58:34;;;;;;;7.63;4.43;;;15.60;99.90;;;;;;4943201;28;20046;-91
2022/09/25 05:01:09;;;;;;;5.57;4.40;;;15.70;99.90;;;;;;4943132;28;20023;-90
2022/09/25 05:03:39;;;;;;;5.75;4.32;;;15.70;99.90;;;;;;4943282;28;20115;-91
2022/09/25 05:06:06;;;;;;;6.07;4.43;;;15.70;99.90;;;;;;4943137;28;20484;-92
2022/09/25 05:08:33;;;;;;;6.50;4.40;;;15.80;99.90;;;;;;4959158;28;20062;-92
2022/09/25 05:10:59;;;;;;;6.85;4.70;;;15.90;99.90;;;;;;4943129;28;20023;-92
2022/09/25 05:13:27;;;;;;;8.50;5.03;;;15.90;99.90;;;;;;4943177;28;20111;-91
2022/09/25 05:15:55;;;;;;;7.03;4.78;;;15.90;99.90;;;;;;4943190;28;20073;-91
2022/09/25 05:18:25;;;;;;;6.82;4.90;;;16.00;99.90;;;;;;4942935;28;20035;-94
2022/09/25 05:20:53;;;;;;;6.35;4.82;;;16.00;99.90;;;;;;4942919;28;20034;-91
2022/09/25 05:23:21;;;;;;;7.68;5.20;;;16.00;99.90;;;;;;4942723;28;20023;-90
2022/09/25 05:25:59;;;;;;;9.48;5.10;;;16.00;99.90;;;;;;4942882;28;20408;-92
2022/09/25 05:28:32;;;;;;;6.32;5.15;;;16.10;99.90;;;;;;4942902;28;20062;-91
2022/09/25 05:31:04;;;;;;;5.88;5.10;;;16.20;99.90;;;;;;4943097;28;20049;-91
2022/09/25 05:33:32;;;;;;;8.40;5.40;;;16.40;99.90;;;;;;4942673;28;20536;-92
2022/09/25 05:36:06;;;;;;;7.88;5.05;;;16.50;99.90;;;;;;4942714;28;20416;-91
2022/09/25 05:38:35;;;;;;;5.60;4.90;;;16.60;99.90;;;;;;4943268;28;20039;-91
2022/09/25 05:41:04;;;;;;;6.15;4.80;;;16.80;99.90;;;;;;4942552;28;20431;-91
2022/09/25 05:43:31;;;;;;;8.38;4.40;;;16.90;99.90;;;;;;4942486;28;20046;-90
2022/09/25 05:45:58;;;;;;;7.85;5.55;;;17.10;99.90;;;;;;4942501;28;20026;-90
2022/09/25 05:48:25;;;;;;;6.90;5.10;;;17.20;99.90;;;;;;4942466;28;20177;-90
2022/09/25 05:50:56;;;;;;;7.45;5.45;;;17.40;99.90;;;;;;4958616;28;20034;-90
2022/09/25 05:53:24;;;;;;;10.48;5.85;;;17.60;99.90;;;;;;4942343;28;20109;-92
2022/09/25 05:55:57;;;;;;;9.55;5.55;;;18.10;99.90;;;;;;4942348;28;20033;-90
2022/09/25 05:58:25;;;;;;;8.02;6.00;;;18.70;99.90;;;;;;4941444;28;20046;-91
2022/09/25 06:01:06;;;;;;;8.27;6.28;;;18.90;99.90;;;;;;4942385;28;20030;-91
2022/09/25 06:03:33;;;;;;;9.50;6.70;;;19.00;99.90;;;;;;4942255;28;20042;-91
2022/09/25 06:05:59;;;;;;;8.85;6.72;;;19.10;99.90;;;;;;4942222;28;20510;-90
2022/09/25 06:08:29;;;;;;;8.63;7.82;;;19.80;99.90;;;;;;4942506;28;20386;-91
2022/09/25 06:10:57;;;;;;;10.15;8.00;;;20.20;99.90;;;;;;4942125;28;20094;-91
2022/09/25 06:13:24;;;;;;;8.45;7.60;;;20.40;99.90;;;;;;4942214;28;20027;-90
2022/09/25 06:15:52;;;;;;;8.93;8.10;;;20.50;99.90;;;;;;4942301;28;20089;-90
2022/09/25 06:18:25;;;;;;;9.50;7.60;;;20.30;99.90;;;;;;4942116;28;20047;-91
2022/09/25 06:21:01;;;;;;;10.55;8.95;;;20.30;99.90;;;;;;4942170;28;20058;-91
2022/09/25 06:23:28;;;;;;;9.13;8.30;;;20.90;99.90;;;;;;4942250;28;20404;-91
2022/09/25 06:25:58;;;;;;;8.07;7.32;;;21.10;99.90;;;;;;4942348;28;20023;-91
2022/09/25 06:28:25;;;;;;;8.57;7.88;;;21.10;99.90;;;;;;4964576;23;20050;-92
2022/09/25 06:30:58;;;;;;;10.82;6.78;;;21.10;99.90;;;;;;4962588;28;20396;-90
2022/09/25 06:33:34;;;;;;;8.75;6.53;;;21.10;99.90;;;;;;4942749;28;20084;-89
2022/09/25 06:36:13;;;;;;;10.52;7.00;;;21.10;99.90;;;;;;4958038;28;20026;-91
2022/09/25 06:38:40;;;;;;;7.32;6.50;;;21.60;99.90;;;;;;4954686;28;20043;-87
2022/09/25 06:41:06;;;;;;;7.20;6.60;;;21.80;99.90;;;;;;4923167;29;20066;-89
2022/09/25 06:43:33;;;;;;;8.02;7.43;;;21.90;99.90;;;;;;4923132;29;20055;-88
2022/09/25 06:46:02;;;;;;;10.98;8.20;;;22.70;99.90;;;;;;4923092;29;20118;-88
2022/09/25 06:48:29;;;;;;;8.55;7.75;;;23.20;99.90;;;;;;4939559;29;20027;-90
2022/09/25 06:51:00;;;;;;;11.98;9.50;;;23.20;99.90;;;;;;4938995;29;20031;-88
2022/09/25 06:53:27;;;;;;;11.27;10.07;;;23.30;99.90;;;;;;4938937;29;20035;-89
2022/09/25 06:55:58;;;;;;;9.70;8.93;;;23.90;99.90;;;;;;5024343;23;20505;-92
2022/09/25 06:58:34;;;;;;;13.60;11.43;;;23.70;99.90;;;;;;4941810;28;20055;-93
2022/09/25 07:01:01;;;;;;;14.45;12.70;;;23.80;99.90;;;;;;4957710;28;20171;-94
2022/09/25 07:03:44;;;;;;;10.93;9.98;;;23.70;99.90;;;;;;4957800;28;20030;-94
2022/09/25 07:06:15;;;;;;;23.10;14.07;;;23.80;99.90;;;;;;4941930;28;20396;-92
2022/09/25 07:08:43;;;;;;;20.63;13.88;;;24.10;99.90;;;;;;4957924;28;20038;-93
2022/09/25 07:11:24;;;;;;;10.50;9.60;;;24.10;99.90;;;;;;4961309;28;20026;-91
2022/09/25 07:13:53;;;;;;;10.38;9.68;;;23.80;99.90;;;;;;4945255;28;20070;-91
2022/09/25 07:16:26;;;;;;;10.25;9.32;;;23.70;99.90;;;;;;4961076;28;20054;-93
2022/09/25 07:18:59;;;;;;;12.32;11.13;;;23.60;99.90;;;;;;4945097;28;20439;-92
2022/09/25 07:21:29;;;;;;;17.10;12.52;;;23.50;99.90;;;;;;4961095;28;20031;-94
2022/09/25 07:24:08;;;;;;;10.77;9.23;;;23.40;99.90;;;;;;4967508;28;20140;-91
2022/09/25 07:26:39;;;;;;;13.18;11.38;;;23.50;99.90;;;;;;5301624;23;20073;-92
2022/09/25 07:29:06;;;;;;;16.13;13.45;;;23.70;99.90;;;;;;4972883;28;20104;-93
2022/09/25 07:31:36;;;;;;;15.75;12.38;;;23.80;99.90;;;;;;4990055;28;20018;-94
2022/09/25 07:34:07;;;;;;;10.50;9.68;;;23.60;99.90;;;;;;4990427;28;20033;-92
2022/09/25 07:36:37;;;;;;;10.45;9.50;;;23.50;99.90;;;;;;4990238;28;20045;-93
2022/09/25 07:39:05;;;;;;;13.45;12.02;;;23.70;99.90;;;;;;4989079;28;20026;-94
2022/09/25 07:41:40;;;;;;;14.52;11.27;;;24.30;99.90;;;;;;4989566;28;20032;-93
2022/09/25 07:44:06;;;;;;;11.93;10.93;;;24.80;99.90;;;;;;4990536;28;20030;-93
2022/09/25 07:47:18;;;;;;;16.25;14.38;;;24.60;99.90;;;;;;4989096;28;20053;-92
2022/09/25 07:49:45;;;;;;;19.67;15.75;;;24.70;99.90;;;;;;4941835;29;20040;-79
2022/09/25 07:52:13;;;;;;;11.40;10.60;;;24.80;99.90;;;;;;4940935;29;20036;-87
2022/09/25 07:54:42;;;;;;;13.07;10.65;;;24.70;99.90;;;;;;4908358;29;20043;-85
2022/09/25 07:57:12;;;;;;;16.25;14.20;;;24.30;99.90;;;;;;4923540;29;20043;-86
2022/09/25 07:59:38;;;;;;;28.50;17.00;;;24.10;99.90;;;;;;4908128;29;20040;-88
2022/09/25 08:02:05;;;;;;;49.55;27.77;;;24.10;99.90;;;;;;4907535;29;20027;-83
2022/09/25 08:04:34;;;;;;;18.10;13.75;;;24.10;99.90;;;;;;4908036;29;20035;-92
2022/09/25 08:07:00;;;;;;;11.65;9.82;;;24.10;99.90;;;;;;4923886;29;20035;-92
2022/09/25 08:09:27;;;;;;;10.95;9.40;;;24.00;99.90;;;;;;4908135;29;20040;-89
2022/09/25 08:11:53;;;;;;;9.98;9.38;;;24.00;99.90;;;;;;4908439;29;20114;-90
2022/09/25 08:14:25;;;;;;;10.90;9.98;;;23.90;99.90;;;;;;4908398;29;20115;-91
2022/09/25 08:16:54;;;;;;;12.02;10.98;;;24.30;99.90;;;;;;4909248;29;20043;-92
2022/09/25 08:19:22;;;;;;;12.15;11.05;;;24.90;99.90;;;;;;4925445;29;20114;-92
2022/09/25 08:28:58;;;;;;;12.60;11.40;;;25.40;99.90;;;;;;4941624;29;20059;-93
2022/09/25 08:31:28;;;;;;;12.35;11.23;;;25.30;99.90;;;;;;4943571;29;20028;-93
2022/09/25 08:33:58;;;;;;;11.95;10.77;;;24.90;99.90;;;;;;4944030;29;20027;-94
2022/09/25 08:36:27;;;;;;;11.57;10.68;;;24.70;99.90;;;;;;4944113;29;20382;-93
2022/09/25 08:39:27;;;;;;;;;;;;;;;;;;;;;
2022/09/25 08:42:01;;;;;;;;;;;24.20;99.90;;;;;;4958367;29;20047;-91
2022/09/25 08:44:43;;;;;;;10.45;9.43;;;24.30;99.90;;;;;;4944685;29;19910;-93
2022/09/25 08:51:34;;;;;;;;;;;;;;;;;;;;;
2022/09/25 08:54:24;;;;;;;11.70;9.07;;;24.00;99.90;;;;;;4939840;29;20106;-93
2022/09/25 08:57:03;;;;;;;11.77;8.13;;;23.80;99.90;;;;;;4923030;29;20095;-92
2022/09/25 08:59:41;;;;;;;10.50;8.65;;;23.70;99.90;;;;;;4942893;29;20043;-91
2022/09/25 09:02:17;;;;;;;11.80;10.18;;;24.00;99.90;;;;;;4960039;29;20035;-91
2022/09/25 09:05:03;;;;;;;9.73;8.63;;;24.40;99.90;;;;;;4961733;29;20023;-92
2022/09/25 09:07:57;;;;;;;9.60;9.00;;;24.50;99.90;;;;;;4945847;29;20074;-93
2022/09/25 09:10:52;;;;;;;11.30;9.90;;;24.30;99.90;;;;;;4943737;29;20055;-91
2022/09/25 09:13:32;;;;;;;11.48;10.63;;;24.80;99.90;;;;;;4959053;29;20031;-84
2022/09/25 09:16:06;;;;;;;12.20;11.30;;;25.30;99.90;;;;;;4942506;29;20101;-93
2022/09/25 11:46:03;;;;;;;10.00;9.10;;;24.10;99.90;;;;;;5409224;23;20059;-91
2022/09/25 11:48:53;;;;;;;10.25;8.93;;;24.00;99.90;;;;;;4949307;28;20042;-88
2022/09/25 11:51:57;;;;;;;9.80;9.02;;;23.60;99.90;;;;;;4933377;29;20023;-88
2022/09/25 11:54:47;;;;;;;9.27;8.20;;;23.30;99.90;;;;;;4945468;29;20059;-89
2022/09/25 11:57:43;;;;;;;10.25;8.70;;;23.40;99.90;;;;;;4924755;29;20042;-90
2022/09/25 12:00:16;;;;;;;9.30;8.70;;;23.60;99.90;;;;;;4941197;29;20027;-89
2022/09/25 12:03:08;;;;;;;9.20;8.40;;;23.60;99.90;;;;;;4941205;29;20031;-91
2022/09/25 12:06:13;;;;;;;9.57;8.55;;;23.50;99.90;;;;;;4941580;29;20142;-90
2022/09/25 12:08:50;;;;;;;9.50;8.90;;;23.60;99.90;;;;;;4941609;29;20027;-89
2022/09/25 12:11:44;;;;;;;9.85;9.25;;;23.80;99.90;;;;;;4925827;29;20039;-91
2022/09/25 12:14:19;;;;;;;10.38;9.60;;;24.20;99.90;;;;;;4926012;29;20082;-91
2022/09/25 12:17:13;;;;;;;11.45;10.20;;;24.20;99.90;;;;;;4941717;29;20036;-88
2022/09/25 12:20:13;;;;;;;9.90;9.15;;;24.10;99.90;;;;;;4925991;29;20079;-91
2022/09/25 12:23:34;;;;;;;11.52;9.13;;;23.90;99.90;;;;;;4941373;29;20058;-90
2022/09/25 12:26:01;;;;;;;12.68;8.70;;;24.00;99.90;;;;;;4881298;29;20089;-90
2022/09/25 12:29:05;;;;;;;9.35;8.68;;;23.50;99.90;;;;;;4850106;29;20071;-93
2022/09/25 12:31:52;;;;;;;9.40;8.57;;;23.50;99.90;;;;;;4865593;29;20131;-94
2022/09/25 12:34:48;;;;;;;8.80;8.20;;;23.20;99.90;;;;;;4849725;29;20056;-91
2022/09/25 12:37:42;;;;;;;10.55;8.05;;;23.10;99.90;;;;;;4853287;29;20044;-90
2022/09/25 12:40:46;;;;;;;8.82;8.02;;;23.20;99.90;;;;;;4873814;29;20065;-91
2022/09/25 12:43:40;;;;;;;9.43;8.93;;;23.30;99.90;;;;;;4870059;29;20049;-93
2022/09/25 12:46:42;;;;;;;10.05;9.43;;;23.40;99.90;;;;;;4876217;29;20195;-91
2022/09/25 12:49:32;;;;;;;10.20;9.00;;;23.70;99.90;;;;;;4843648;29;20057;-92
2022/09/25 12:52:22;;;;;;;9.65;8.73;;;23.60;99.90;;;;;;4847371;29;20030;-93
2022/09/25 12:55:22;;;;;;;9.40;8.57;;;23.40;99.90;;;;;;4837289;29;20089;-94
2022/09/25 13:15:40;;;;;;;11.50;10.80;;;23.70;99.90;;;;;;4932676;29;20061;-92
2022/09/25 13:18:38;;;;;;;12.13;11.33;;;24.10;99.90;;;;;;4927024;29;20047;-92
2022/09/25 13:22:15;;;;;;;11.90;11.25;;;24.10;99.90;;;;;;4943907;29;20042;-93
2022/09/25 13:25:14;;;;;;;11.40;10.80;;;24.10;99.90;;;;;;4923083;29;20071;-91
2022/09/25 13:27:46;;;;;;;12.30;11.18;;;24.00;99.90;;;;;;4927998;29;20095;-93
2022/09/25 13:30:22;;;;;;;12.13;11.32;;;24.10;99.90;;;;;;4921637;29;20035;-92
2022/09/25 13:32:54;;;;;;;12.57;11.57;;;24.40;99.90;;;;;;4930865;29;20051;-94
2022/09/25 13:35:28;;;;;;;12.20;11.32;;;24.40;99.90;;;;;;4921111;29;20035;-92
2022/09/25 13:37:56;;;;;;;;;;;24.00;99.90;;;;;;4921210;29;20039;-93
2022/09/25 13:40:41;;;;;;;11.90;11.20;;;23.90;99.90;;;;;;4938126;29;19980;-91
2022/09/25 13:43:27;;;;;;;11.52;10.85;;;23.90;99.90;;;;;;4920376;29;20036;-90
2022/09/25 13:46:20;;;;;;;11.75;10.90;;;24.00;99.90;;;;;;4920634;29;20107;-92
2022/09/25 13:48:47;;;;;;;11.43;10.57;;;23.90;99.90;;;;;;4937156;29;20035;-92
2022/09/25 13:51:17;;;;;;;11.85;10.77;;;24.00;99.90;;;;;;4920594;29;20024;-94
2022/09/25 13:54:12;;;;;;;11.43;10.63;;;24.10;99.90;;;;;;4960447;23;20086;-92
2022/09/25 13:56:42;;;;;;;11.02;10.38;;;23.80;99.90;;;;;;4953620;29;20042;-91
2022/09/25 13:59:12;;;;;;;10.75;9.85;;;23.60;99.90;;;;;;4939952;29;20047;-92
2022/09/25 14:02:21;;;;;;;10.85;10.02;;;23.60;99.90;;;;;;4975606;28;20028;-93
2022/09/25 14:04:54;;;;;;;11.10;10.30;;;23.70;99.90;;;;;;4957679;29;20032;-94
2022/09/25 14:07:28;;;;;;;10.30;9.70;;;23.60;99.90;;;;;;4950975;29;20064;-93
2022/09/25 14:10:00;;;;;;;10.65;9.88;;;23.60;99.90;;;;;;4934033;29;20040;-94
2022/09/25 14:15:06;;;;;;;10.60;9.80;;;23.60;99.90;;;;;;4999616;23;20050;-92
2022/09/25 14:17:36;;;;;;;11.15;10.15;;;23.80;99.90;;;;;;4977428;28;20038;-94
2022/09/25 14:21:52;;;;;;;11.60;10.60;;;23.80;99.90;;;;;;5136343;27;20405;-93
2022/09/25 14:24:29;;;;;;;11.00;10.10;;;23.70;99.90;;;;;;5002602;28;20068;-90
2022/09/25 14:27:00;;;;;;;10.90;10.20;;;23.60;99.90;;;;;;4980056;28;20094;-93
2022/09/25 14:29:56;;;;;;;10.60;9.93;;;23.50;99.90;;;;;;5045773;28;20071;-93
2022/09/25 14:33:02;;;;;;;10.48;9.88;;;23.70;99.90;;;;;;5078841;28;20024;-91
2022/09/25 14:35:45;;;;;;;11.57;10.52;;;23.50;99.90;;;;;;5195343;22;20044;-94
2022/09/25 14:41:17;;;;;;;11.27;10.48;;;23.40;99.90;;;;;;5050749;28;20057;-94
2022/09/25 14:44:05;;;;;;;11.27;10.43;;;23.50;99.90;;;;;;5038614;28;20025;-93
2022/09/25 14:46:33;;;;;;;11.10;10.25;;;23.50;99.90;;;;;;5052179;28;20033;-96
2022/09/25 14:49:05;;;;;;;11.38;9.80;;;23.50;99.90;;;;;;5033840;28;20021;-92
2022/09/25 14:51:42;;;;;;;10.02;9.40;;;23.50;99.90;;;;;;5034290;28;20025;-93
2022/09/25 14:54:17;;;;;;;10.43;9.40;;;23.30;99.90;;;;;;5018957;28;20029;-92
2022/09/25 14:56:49;;;;;;;10.30;9.57;;;23.20;99.90;;;;;;5033915;28;20025;-93
2022/09/25 14:59:47;;;;;;;9.27;8.68;;;23.10;99.90;;;;;;5017392;28;20048;-92
2022/09/25 15:02:35;;;;;;;10.27;9.30;;;23.20;99.90;;;;;;5018113;28;20199;-95
2022/09/25 15:05:40;;;;;;;9.40;8.90;;;23.20;99.90;;;;;;5019047;28;20036;-92
2022/09/25 15:08:41;;;;;;;10.07;9.48;;;23.10;99.90;;;;;;5018816;28;20034;-95
2022/09/25 15:11:29;;;;;;;;;;;;;;;;;;;;;
2022/09/25 15:14:58;;;;;;;9.90;9.20;;;22.90;99.90;;;;;;5157981;22;20079;-93
2022/09/25 15:51:59;;;;;;;9.57;8.60;;;22.70;99.90;;;;;;5187349;22;20105;-95
2022/09/25 16:06:53;;;;;;;12.40;8.15;;;22.60;99.90;;;;;;5034005;22;20145;-92
2022/09/25 16:09:22;;;;;;;9.45;8.57;;;22.50;99.90;;;;;;4972099;28;20034;-92
2022/09/25 16:11:49;;;;;;;8.45;7.68;;;22.40;99.90;;;;;;4998193;28;20059;-91
2022/09/25 16:14:28;;;;;;;10.63;7.82;;;22.40;99.90;;;;;;4980410;28;20084;-94
2022/09/25 16:16:59;;;;;;;10.63;7.68;;;22.20;99.90;;;;;;4982443;28;20113;-94
2022/09/25 16:19:31;;;;;;;8.00;7.30;;;22.20;99.90;;;;;;4981423;28;20058;-93
2022/09/25 16:22:19;;;;;;;15.82;7.45;;;22.10;99.90;;;;;;4983878;28;20094;-95
2022/09/25 16:24:51;;;;;;;16.08;7.93;;;22.10;99.90;;;;;;4984970;28;20038;-93
2022/09/25 16:33:42;;;;;;;6.50;6.07;;;21.90;99.90;;;;;;5024380;28;20053;-94
2022/09/25 16:36:17;;;;;;;8.75;5.28;;;21.90;99.90;;;;;;4985430;28;20096;-93
2022/09/25 16:39:24;;;;;;;6.95;5.82;;;21.90;99.90;;;;;;4981103;28;20487;-94
2022/09/25 16:47:52;;;;;;;;;;;;;;;;;;;;;
2022/09/25 17:04:22;;;;;;;;;;;;;;;;;;;;;
2022/09/25 17:07:21;;;;;;;8.05;4.75;;;21.40;99.90;;;;;;4939377;23;20129;-94
2022/09/25 17:16:38;;;;;;;12.13;5.00;;;21.20;99.90;;;;;;4976328;28;20113;-93
2022/09/25 17:19:27;;;;;;;6.28;4.05;;;21.20;99.90;;;;;;4959907;28;20428;-93
2022/09/25 17:22:28;;;;;;;6.85;3.70;;;21.10;99.90;;;;;;4960277;28;20047;-94
2022/09/25 17:25:39;;;;;;;6.82;4.05;;;21.10;99.90;;;;;;4959781;28;20026;-95
2022/09/25 17:28:26;;;;;;;9.95;3.97;;;21.10;99.90;;;;;;4975793;28;20037;-94
2022/09/25 17:31:27;;;;;;;8.20;3.70;;;21.10;99.90;;;;;;4944198;28;20052;-94
2022/09/25 17:40:16;;;;;;;4.45;3.35;;;20.90;99.90;;;;;;4987026;23;20055;-94
2022/09/25 17:42:52;;;;;;;9.15;3.60;;;20.90;99.90;;;;;;4946851;28;20054;-93
2022/09/25 17:45:53;;;;;;;7.50;3.60;;;20.90;99.90;;;;;;4946436;28;20035;-93
2022/09/25 17:48:25;;;;;;;7.30;3.10;;;20.90;99.90;;;;;;4943038;28;20074;-93
2022/09/25 18:17:46;;;;;;;7.80;3.33;;;20.60;99.90;;;;;;5223979;23;19922;-93
2022/09/25 18:23:26;;;;;;;7.05;3.97;;;20.60;99.90;;;;;;5038231;23;20356;-92
2022/09/25 18:26:17;;;;;;;8.82;3.97;;;20.60;99.90;;;;;;4963922;28;20031;-92
2022/09/25 18:35:38;;;;;;;10.23;3.40;;;20.60;99.90;;;;;;5091395;23;20073;-93
2022/09/25 18:38:04;;;;;;;11.90;4.45;;;20.60;99.90;;;;;;4962423;28;20065;-92
2022/09/25 18:41:15;;;;;;;10.40;3.38;;;20.50;99.90;;;;;;4942482;28;20042;-91
2022/09/25 18:43:45;;;;;;;7.50;3.58;;;20.50;99.90;;;;;;4957376;28;20078;-89
2022/09/25 18:46:12;;;;;;;10.55;3.65;;;20.60;99.90;;;;;;4941877;28;20059;-90
2022/09/25 18:48:41;;;;;;;10.20;4.15;;;20.60;99.90;;;;;;4942407;28;20058;-89